createdAt,value
2023-04-19T00:00:21.262Z,8.52
2023-04-19T00:01:21.198Z,8.50
2023-04-19T00:02:21.316Z,8.52
2023-04-19T00:03:21.293Z,8.53
2023-04-19T00:04:21.672Z,8.55
2023-04-19T00:05:21.215Z,8.55
2023-04-19T00:06:21.154Z,8.55
2023-04-19T00:07:21.141Z,8.56
2023-04-19T00:08:21.135Z,8.57
2023-04-19T00:09:21.169Z,8.59
2023-04-19T00:10:21.118Z,8.56
2023-04-19T00:11:21.096Z,8.53
2023-04-19T00:12:21.078Z,8.56
2023-04-19T00:13:21.064Z,8.60
2023-04-19T00:14:21.057Z,8.62
2023-04-19T00:15:21.051Z,8.63
2023-04-19T00:16:21.041Z,8.63
2023-04-19T00:17:21.027Z,8.63
2023-04-19T00:18:21.043Z,8.63
2023-04-19T00:19:21.007Z,8.60
2023-04-19T00:20:21.004Z,8.60
2023-04-19T00:21:20.974Z,8.60
2023-04-19T00:22:20.973Z,8.63
2023-04-19T00:23:20.970Z,8.63
2023-04-19T00:24:20.947Z,8.65
2023-04-19T00:25:20.932Z,8.65
2023-04-19T00:26:20.957Z,8.63
2023-04-19T00:27:20.913Z,8.63
2023-04-19T00:28:20.899Z,8.62
2023-04-19T00:29:20.892Z,8.60
2023-04-19T00:30:20.929Z,8.60
2023-04-19T00:31:20.901Z,8.60
2023-04-19T00:32:20.860Z,8.62
2023-04-19T00:33:20.836Z,8.63
2023-04-19T00:34:20.851Z,8.63
2023-04-19T00:35:20.835Z,8.62
2023-04-19T00:36:20.857Z,8.60
2023-04-19T00:37:20.820Z,8.56
2023-04-19T00:38:20.789Z,8.53
2023-04-19T00:39:20.783Z,8.44
2023-04-19T00:40:20.773Z,8.33
2023-04-19T00:41:20.759Z,8.33
2023-04-19T00:42:20.745Z,8.33
2023-04-19T00:43:20.733Z,8.34
2023-04-19T00:44:20.746Z,8.39
2023-04-19T00:45:20.704Z,8.39
2023-04-19T00:46:20.755Z,8.42
2023-04-19T00:47:20.678Z,8.44
2023-04-19T00:48:20.715Z,8.44
2023-04-19T00:49:20.670Z,8.46
2023-04-19T00:50:20.676Z,8.44
2023-04-19T00:51:20.639Z,8.41
2023-04-19T00:52:20.632Z,8.41
2023-04-19T00:53:20.612Z,8.39
2023-04-19T00:54:20.617Z,8.41
2023-04-19T00:55:20.602Z,8.39
2023-04-19T00:56:20.593Z,8.38
2023-04-19T00:57:20.579Z,8.38
2023-04-19T00:58:20.555Z,8.39
2023-04-19T00:59:20.548Z,8.37
2023-04-19T01:00:20.549Z,8.38
2023-04-19T01:01:20.581Z,8.37
2023-04-19T01:02:20.587Z,8.34
2023-04-19T01:03:20.710Z,8.33
2023-04-19T01:04:20.822Z,8.28
2023-04-19T01:05:20.501Z,8.28
2023-04-19T01:06:20.501Z,8.28
2023-04-19T01:07:20.481Z,8.23
2023-04-19T01:08:20.439Z,8.25
2023-04-19T01:09:20.447Z,8.25
2023-04-19T01:10:20.421Z,8.27
2023-04-19T01:11:20.415Z,8.28
2023-04-19T01:12:20.406Z,8.30
2023-04-19T01:13:20.396Z,8.28
2023-04-19T01:14:20.381Z,8.28
2023-04-19T01:15:20.374Z,8.25
2023-04-19T01:16:20.511Z,8.19
2023-04-19T01:17:20.365Z,8.16
2023-04-19T01:18:20.336Z,8.16
2023-04-19T01:19:20.318Z,8.15
2023-04-19T01:20:20.327Z,8.16
2023-04-19T01:21:20.305Z,8.13
2023-04-19T01:22:20.321Z,8.12
2023-04-19T01:23:20.270Z,8.08
2023-04-19T01:24:20.269Z,8.08
2023-04-19T01:25:20.254Z,8.04
2023-04-19T01:26:20.243Z,8.05
2023-04-19T01:27:20.284Z,8.04
2023-04-19T01:28:20.212Z,8.05
2023-04-19T01:29:20.202Z,8.03
2023-04-19T01:30:20.202Z,8.01
2023-04-19T01:31:20.214Z,8.01
2023-04-19T01:32:20.207Z,7.97
2023-04-19T01:33:20.166Z,7.94
2023-04-19T01:34:20.154Z,7.91
2023-04-19T01:35:20.140Z,7.87
2023-04-19T01:36:20.131Z,7.85
2023-04-19T01:37:20.124Z,7.80
2023-04-19T01:38:20.127Z,7.80
2023-04-19T01:39:20.106Z,7.77
2023-04-19T01:40:20.075Z,7.77
2023-04-19T01:41:20.070Z,7.77
2023-04-19T01:42:20.063Z,7.79
2023-04-19T01:43:20.047Z,7.76
2023-04-19T01:44:20.045Z,7.73
2023-04-19T01:45:20.028Z,7.73
2023-04-19T01:46:20.016Z,7.68
2023-04-19T01:47:19.992Z,7.62
2023-04-19T01:48:19.990Z,7.58
2023-04-19T01:49:19.972Z,7.58
2023-04-19T01:50:19.969Z,7.58
2023-04-19T01:51:19.952Z,7.58
2023-04-19T01:52:19.940Z,7.54
2023-04-19T01:53:19.924Z,7.49
2023-04-19T01:54:19.942Z,7.46
2023-04-19T01:55:19.920Z,7.47
2023-04-19T01:56:19.894Z,7.40
2023-04-19T01:57:19.901Z,7.34
2023-04-19T01:58:19.871Z,7.29
2023-04-19T01:59:19.853Z,7.26
2023-04-19T02:00:19.848Z,7.25
2023-04-19T02:01:20.022Z,7.26
2023-04-19T02:02:19.875Z,7.29
2023-04-19T02:03:20.087Z,7.31
2023-04-19T02:04:19.833Z,7.36
2023-04-19T02:05:19.797Z,7.36
2023-04-19T02:06:19.780Z,7.37
2023-04-19T02:07:19.767Z,7.42
2023-04-19T02:08:19.746Z,7.40
2023-04-19T02:09:19.741Z,7.37
2023-04-19T02:10:19.761Z,7.36
2023-04-19T02:11:19.726Z,7.36
2023-04-19T02:12:19.711Z,7.33
2023-04-19T02:13:19.701Z,7.31
2023-04-19T02:14:19.686Z,7.28
2023-04-19T02:15:19.671Z,7.29
2023-04-19T02:16:19.676Z,7.29
2023-04-19T02:17:19.681Z,7.26
2023-04-19T02:18:19.637Z,7.22
2023-04-19T02:19:19.628Z,7.19
2023-04-19T02:20:19.616Z,7.18
2023-04-19T02:21:19.609Z,7.19
2023-04-19T02:22:19.588Z,7.15
2023-04-19T02:23:19.618Z,7.10
2023-04-19T02:24:19.616Z,7.01
2023-04-19T02:25:19.569Z,6.96
2023-04-19T02:26:19.569Z,6.92
2023-04-19T02:27:19.557Z,6.90
2023-04-19T02:28:19.526Z,6.87
2023-04-19T02:29:19.509Z,6.87
2023-04-19T02:30:19.502Z,6.85
2023-04-19T02:31:19.527Z,6.82
2023-04-19T02:32:19.490Z,6.80
2023-04-19T02:33:19.475Z,6.78
2023-04-19T02:34:19.457Z,6.74
2023-04-19T02:35:19.476Z,6.67
2023-04-19T02:36:19.445Z,6.63
2023-04-19T02:37:19.512Z,6.59
2023-04-19T02:38:19.415Z,6.55
2023-04-19T02:39:19.399Z,6.49
2023-04-19T02:40:19.396Z,6.46
2023-04-19T02:41:19.378Z,6.42
2023-04-19T02:42:19.398Z,6.36
2023-04-19T02:43:19.363Z,6.34
2023-04-19T02:44:19.344Z,6.33
2023-04-19T02:45:19.336Z,6.30
2023-04-19T02:46:19.334Z,6.27
2023-04-19T02:47:19.445Z,6.26
2023-04-19T02:48:19.309Z,6.26
2023-04-19T02:49:19.303Z,6.29
2023-04-19T02:50:19.278Z,6.36
2023-04-19T02:51:19.274Z,6.42
2023-04-19T02:52:19.264Z,6.45
2023-04-19T02:53:19.256Z,6.45
2023-04-19T02:54:19.239Z,6.44
2023-04-19T02:55:19.231Z,6.39
2023-04-19T02:56:19.217Z,6.37
2023-04-19T02:57:19.199Z,6.34
2023-04-19T02:58:19.208Z,6.30
2023-04-19T02:59:19.178Z,6.30
2023-04-19T03:00:19.183Z,6.30
2023-04-19T03:01:19.219Z,6.26
2023-04-19T03:02:19.167Z,6.19
2023-04-19T03:03:19.146Z,6.16
2023-04-19T03:04:19.142Z,6.12
2023-04-19T03:05:19.123Z,6.12
2023-04-19T03:06:19.108Z,6.15
2023-04-19T03:07:19.087Z,6.15
2023-04-19T03:08:19.080Z,6.12
2023-04-19T03:09:19.077Z,6.09
2023-04-19T03:10:19.065Z,6.05
2023-04-19T03:11:19.044Z,6.00
2023-04-19T03:12:19.030Z,5.95
2023-04-19T03:13:19.024Z,5.94
2023-04-19T03:14:19.054Z,5.94
2023-04-19T03:15:19.004Z,5.94
2023-04-19T03:16:19.056Z,5.94
2023-04-19T03:17:19.043Z,5.97
2023-04-19T03:18:18.968Z,5.97
2023-04-19T03:19:18.955Z,5.97
2023-04-19T03:20:18.949Z,5.97
2023-04-19T03:21:18.936Z,5.98
2023-04-19T03:22:18.913Z,6.02
2023-04-19T03:23:18.921Z,5.98
2023-04-19T03:24:18.899Z,5.95
2023-04-19T03:25:18.886Z,5.95
2023-04-19T03:26:18.877Z,5.95
2023-04-19T03:27:18.914Z,5.97
2023-04-19T03:28:18.852Z,5.97
2023-04-19T03:29:18.837Z,5.98
2023-04-19T03:30:18.918Z,5.97
2023-04-19T03:31:18.838Z,5.97
2023-04-19T03:32:18.805Z,5.94
2023-04-19T03:33:18.786Z,5.94
2023-04-19T03:34:18.775Z,5.93
2023-04-19T03:35:18.772Z,5.91
2023-04-19T03:36:18.758Z,5.91
2023-04-19T03:37:18.743Z,5.91
2023-04-19T03:38:18.737Z,5.90
2023-04-19T03:39:18.717Z,5.90
2023-04-19T03:40:18.717Z,5.91
2023-04-19T03:41:18.705Z,5.91
2023-04-19T03:42:18.696Z,5.95
2023-04-19T03:43:18.682Z,5.94
2023-04-19T03:44:18.883Z,5.95
2023-04-19T03:45:18.651Z,5.95
2023-04-19T03:46:18.797Z,5.97
2023-04-19T03:47:18.687Z,5.98
2023-04-19T03:48:18.617Z,5.98
2023-04-19T03:49:18.612Z,5.95
2023-04-19T03:50:18.599Z,5.91
2023-04-19T03:51:18.583Z,5.91
2023-04-19T03:52:18.577Z,5.93
2023-04-19T03:53:18.574Z,5.90
2023-04-19T03:54:20.548Z,5.87
2023-04-19T03:55:20.551Z,5.85
2023-04-19T03:56:18.537Z,5.79
2023-04-19T03:57:18.524Z,5.79
2023-04-19T03:58:18.522Z,5.82
2023-04-19T03:59:18.497Z,5.80
2023-04-19T04:00:18.489Z,5.80
2023-04-19T04:01:18.486Z,5.80
2023-04-19T04:02:20.684Z,5.80
2023-04-19T04:03:18.738Z,5.77
2023-04-19T04:04:18.862Z,5.75
2023-04-19T04:05:18.500Z,5.72
2023-04-19T04:06:18.464Z,5.70
2023-04-19T04:07:18.412Z,5.69
2023-04-19T04:08:18.392Z,5.73
2023-04-19T04:09:18.408Z,5.73
2023-04-19T04:10:18.379Z,5.75
2023-04-19T04:11:18.381Z,5.75
2023-04-19T04:12:18.355Z,5.76
2023-04-19T04:13:18.356Z,5.77
2023-04-19T04:14:18.341Z,5.77
2023-04-19T04:15:18.319Z,5.80
2023-04-19T04:16:18.357Z,5.80
2023-04-19T04:17:18.326Z,5.82
2023-04-19T04:18:18.445Z,5.84
2023-04-19T04:19:18.278Z,5.84
2023-04-19T04:20:18.254Z,5.88
2023-04-19T04:21:18.254Z,5.90
2023-04-19T04:22:18.242Z,5.94
2023-04-19T04:23:18.234Z,5.93
2023-04-19T04:24:18.218Z,5.90
2023-04-19T04:25:18.693Z,5.91
2023-04-19T04:26:18.196Z,5.97
2023-04-19T04:27:18.232Z,6.02
2023-04-19T04:28:18.172Z,6.13
2023-04-19T04:29:18.169Z,6.26
2023-04-19T04:30:18.172Z,6.39
2023-04-19T04:31:18.413Z,6.46
2023-04-19T04:32:18.216Z,6.54
2023-04-19T04:33:18.135Z,6.67
2023-04-19T04:34:18.268Z,6.80
2023-04-19T04:35:18.116Z,6.91
2023-04-19T04:36:18.099Z,6.96
2023-04-19T04:37:18.094Z,7.04
2023-04-19T04:38:24.773Z,7.11
2023-04-19T04:39:18.065Z,7.19
2023-04-19T04:40:18.062Z,7.22
2023-04-19T04:41:18.073Z,7.29
2023-04-19T04:42:18.039Z,7.15
2023-04-19T04:43:18.025Z,7.21
2023-04-19T04:44:18.029Z,7.26
2023-04-19T04:45:18.003Z,7.39
2023-04-19T04:46:18.065Z,7.47
2023-04-19T04:47:17.984Z,7.58
2023-04-19T04:48:17.968Z,7.60
2023-04-19T04:49:17.972Z,7.60
2023-04-19T04:50:17.975Z,7.68
2023-04-19T04:51:17.941Z,7.79
2023-04-19T04:52:17.947Z,7.83
2023-04-19T04:53:17.923Z,7.77
2023-04-19T04:54:17.965Z,7.86
2023-04-19T04:55:17.902Z,8.00
2023-04-19T04:56:17.903Z,8.13
2023-04-19T04:57:17.884Z,8.18
2023-04-19T04:58:20.366Z,8.30
2023-04-19T04:59:17.861Z,8.44
2023-04-19T05:00:17.863Z,8.57
2023-04-19T05:01:17.886Z,8.72
2023-04-19T05:02:17.908Z,8.90
2023-04-19T05:03:17.916Z,9.07
2023-04-19T05:04:18.127Z,9.13
2023-04-19T05:05:17.789Z,9.32
2023-04-19T05:06:17.817Z,9.51
2023-04-19T05:07:17.773Z,9.74
2023-04-19T05:08:17.764Z,9.93
2023-04-19T05:09:17.741Z,9.85
2023-04-19T05:10:17.728Z,9.69
2023-04-19T05:11:17.725Z,9.91
2023-04-19T05:12:17.722Z,10.16
2023-04-19T05:13:17.706Z,10.41
2023-04-19T05:14:17.813Z,10.59
2023-04-19T05:15:17.685Z,10.81
2023-04-19T05:16:17.744Z,11.00
2023-04-19T05:17:17.665Z,11.23
2023-04-19T05:18:17.660Z,11.43
2023-04-19T05:19:17.632Z,11.56
2023-04-19T05:20:17.622Z,11.70
2023-04-19T05:21:17.609Z,11.36
2023-04-19T05:22:17.639Z,11.34
2023-04-19T05:23:17.593Z,11.45
2023-04-19T05:24:17.843Z,11.55
2023-04-19T05:25:17.563Z,11.69
2023-04-19T05:26:17.559Z,11.85
2023-04-19T05:27:17.533Z,11.98
2023-04-19T05:28:17.528Z,11.77
2023-04-19T05:29:17.518Z,11.76
2023-04-19T05:30:17.505Z,11.91
2023-04-19T05:31:17.516Z,11.99
2023-04-19T05:32:17.526Z,12.20
2023-04-19T05:33:17.464Z,12.29
2023-04-19T05:34:19.609Z,12.43
2023-04-19T05:35:17.443Z,12.57
2023-04-19T05:36:17.438Z,12.77
2023-04-19T05:37:17.436Z,12.91
2023-04-19T05:38:17.444Z,12.93
2023-04-19T05:39:17.415Z,13.01
2023-04-19T05:40:17.398Z,13.19
2023-04-19T05:41:17.390Z,13.39
2023-04-19T05:42:17.379Z,13.57
2023-04-19T05:43:17.363Z,13.62
2023-04-19T05:44:17.613Z,13.70
2023-04-19T05:45:17.354Z,13.75
2023-04-19T05:46:17.384Z,13.71
2023-04-19T05:47:17.317Z,13.74
2023-04-19T05:48:17.331Z,13.92
2023-04-19T05:49:17.312Z,14.12
2023-04-19T05:50:17.313Z,14.31
2023-04-19T05:51:17.265Z,14.41
2023-04-19T05:52:17.261Z,14.48
2023-04-19T05:53:17.256Z,14.56
2023-04-19T05:54:17.432Z,14.67
2023-04-19T05:55:17.226Z,14.73
2023-04-19T05:56:17.210Z,14.88
2023-04-19T05:57:17.192Z,15.06
2023-04-19T05:58:17.190Z,15.14
2023-04-19T05:59:17.177Z,15.31
2023-04-19T06:00:17.170Z,15.46
2023-04-19T06:01:17.149Z,15.62
2023-04-19T06:02:17.278Z,15.80
2023-04-19T06:03:17.301Z,15.91
2023-04-19T06:04:17.442Z,15.93
2023-04-19T06:05:17.201Z,15.88
2023-04-19T06:06:17.239Z,15.96
2023-04-19T06:07:30.737Z,16.02
2023-04-19T06:08:17.078Z,15.63
2023-04-19T06:09:17.114Z,15.50
2023-04-19T06:10:17.084Z,15.76
2023-04-19T06:11:24.914Z,15.83
2023-04-19T06:12:17.031Z,15.85
2023-04-19T06:13:17.011Z,16.02
2023-04-19T06:14:17.395Z,16.28
2023-04-19T06:15:17.002Z,16.42
2023-04-19T06:16:17.025Z,16.46
2023-04-19T06:17:17.052Z,16.56
2023-04-19T06:18:19.604Z,16.71
2023-04-19T06:19:16.967Z,16.82
2023-04-19T06:20:16.934Z,16.87
2023-04-19T06:21:16.926Z,16.92
2023-04-19T06:22:16.912Z,16.95
2023-04-19T06:23:16.904Z,16.86
2023-04-19T06:24:17.038Z,17.10
2023-04-19T06:25:16.879Z,17.41
2023-04-19T06:26:16.917Z,17.56
2023-04-19T06:27:16.859Z,17.67
2023-04-19T06:28:16.876Z,17.93
2023-04-19T06:29:16.837Z,18.04
2023-04-19T06:30:16.836Z,18.25
2023-04-19T06:31:16.882Z,18.34
2023-04-19T06:32:16.844Z,18.38
2023-04-19T06:33:16.803Z,18.33
2023-04-19T06:34:17.138Z,18.27
2023-04-19T06:35:16.775Z,18.29
2023-04-19T06:36:16.750Z,18.33
2023-04-19T06:37:16.746Z,18.43
2023-04-19T06:38:16.757Z,18.56
2023-04-19T06:39:16.996Z,18.30
2023-04-19T06:40:16.715Z,18.49
2023-04-19T06:41:16.694Z,18.57
2023-04-19T06:42:16.712Z,18.23
2023-04-19T06:43:16.727Z,18.42
2023-04-19T06:44:17.024Z,18.56
2023-04-19T06:45:16.674Z,18.83
2023-04-19T06:46:16.672Z,18.56
2023-04-19T06:47:16.631Z,18.70
2023-04-19T06:48:16.627Z,18.70
2023-04-19T06:49:16.615Z,18.82
2023-04-19T06:50:16.598Z,19.03
2023-04-19T06:51:16.597Z,19.59
2023-04-19T06:52:16.574Z,20.07
2023-04-19T06:53:16.573Z,20.39
2023-04-19T06:54:16.813Z,20.67
2023-04-19T06:55:16.548Z,20.97
2023-04-19T06:56:16.534Z,20.09
2023-04-19T06:57:16.528Z,19.99
2023-04-19T06:58:16.542Z,20.39
2023-04-19T06:59:16.533Z,20.74
2023-04-19T07:00:16.484Z,20.94
2023-04-19T07:01:16.489Z,21.18
2023-04-19T07:02:16.601Z,21.35
2023-04-19T07:03:16.532Z,21.25
2023-04-19T07:04:17.027Z,21.18
2023-04-19T07:05:16.427Z,21.10
2023-04-19T07:06:16.425Z,21.18
2023-04-19T07:07:16.411Z,21.35
2023-04-19T07:08:16.398Z,21.44
2023-04-19T07:09:16.500Z,21.75
2023-04-19T07:10:16.367Z,21.95
2023-04-19T07:11:16.363Z,22.10
2023-04-19T07:12:16.352Z,22.36
2023-04-19T07:13:16.332Z,22.57
2023-04-19T07:14:16.603Z,22.70
2023-04-19T07:15:16.317Z,22.83
2023-04-19T07:16:16.658Z,22.89
2023-04-19T07:17:16.298Z,22.85
2023-04-19T07:18:16.287Z,22.83
2023-04-19T07:19:16.278Z,22.92
2023-04-19T07:20:16.264Z,22.70
2023-04-19T07:21:16.248Z,22.68
2023-04-19T07:22:16.248Z,22.70
2023-04-19T07:23:16.220Z,22.73
2023-04-19T07:24:16.473Z,22.76
2023-04-19T07:25:16.205Z,22.73
2023-04-19T07:26:16.186Z,22.77
2023-04-19T07:27:16.181Z,22.61
2023-04-19T07:28:16.170Z,22.36
2023-04-19T07:29:16.163Z,22.21
2023-04-19T07:30:16.270Z,21.95
2023-04-19T07:31:16.144Z,22.26
2023-04-19T07:32:16.133Z,22.59
2023-04-19T07:33:16.214Z,23.01
2023-04-19T07:34:16.236Z,23.11
2023-04-19T07:35:16.085Z,23.41
2023-04-19T07:36:16.073Z,23.54
2023-04-19T07:37:16.061Z,23.66
2023-04-19T07:38:16.059Z,23.69
2023-04-19T07:39:16.051Z,23.01
2023-04-19T07:40:16.034Z,23.03
2023-04-19T07:41:16.032Z,23.10
2023-04-19T07:42:16.012Z,23.45
2023-04-19T07:43:16.002Z,23.30
2023-04-19T07:44:16.241Z,23.13
2023-04-19T07:45:15.971Z,23.10
2023-04-19T07:46:16.140Z,23.07
2023-04-19T07:47:15.967Z,22.98
2023-04-19T07:48:15.944Z,23.38
2023-04-19T07:49:15.927Z,23.90
2023-04-19T07:50:15.917Z,23.90
2023-04-19T07:51:15.905Z,24.07
2023-04-19T07:52:15.897Z,24.04
2023-04-19T07:53:15.895Z,24.08
2023-04-19T07:54:16.041Z,23.83
2023-04-19T07:55:15.877Z,23.51
2023-04-19T07:56:15.853Z,23.48
2023-04-19T07:57:15.843Z,23.54
2023-04-19T07:58:15.834Z,23.59
2023-04-19T07:59:15.815Z,23.83
2023-04-19T08:00:15.841Z,24.03
2023-04-19T08:01:15.800Z,24.15
2023-04-19T08:02:16.121Z,23.83
2023-04-19T08:03:15.963Z,22.91
2023-04-19T08:04:16.067Z,23.01
2023-04-19T08:05:15.923Z,23.29
2023-04-19T08:06:15.753Z,23.54
2023-04-19T08:07:15.735Z,23.88
2023-04-19T08:08:15.715Z,24.10
2023-04-19T08:09:15.738Z,24.10
2023-04-19T08:10:15.699Z,24.08
2023-04-19T08:11:15.686Z,24.33
2023-04-19T08:12:30.332Z,24.43
2023-04-19T08:13:15.659Z,24.68
2023-04-19T08:14:30.557Z,24.92
2023-04-19T08:16:51.785Z,23.96
2023-04-19T08:17:23.302Z,23.85
2023-04-19T08:18:15.748Z,23.87
2023-04-19T08:19:15.592Z,24.08
2023-04-19T08:20:15.583Z,23.70
2023-04-19T08:21:15.583Z,23.91
2023-04-19T08:22:15.574Z,24.52
2023-04-19T08:23:24.032Z,25.17
2023-04-19T08:24:15.787Z,25.68
2023-04-19T08:25:15.538Z,25.67
2023-04-19T08:26:15.518Z,25.77
2023-04-19T08:27:15.518Z,25.13
2023-04-19T08:28:15.508Z,25.10
2023-04-19T08:29:15.790Z,24.90
2023-04-19T08:30:15.486Z,24.99
2023-04-19T08:31:15.466Z,25.14
2023-04-19T08:32:15.616Z,25.08
2023-04-19T08:33:15.544Z,24.95
2023-04-19T08:34:15.465Z,25.14
2023-04-19T08:35:15.420Z,25.35
2023-04-19T08:36:22.046Z,25.39
2023-04-19T08:37:15.402Z,25.71
2023-04-19T08:38:15.405Z,25.89
2023-04-19T08:39:29.123Z,25.66
2023-04-19T08:40:15.376Z,25.81
2023-04-19T08:41:15.371Z,26.08
2023-04-19T08:43:15.335Z,25.92
2023-04-19T08:44:17.750Z,26.19
2023-04-19T08:46:15.328Z,26.33
2023-04-19T08:47:27.227Z,26.47
2023-04-19T08:48:15.309Z,26.62
2023-04-19T08:49:15.585Z,26.77
2023-04-19T08:50:28.302Z,26.29
2023-04-19T08:51:15.252Z,25.82
2023-04-19T08:52:15.238Z,25.64
2023-04-19T08:53:24.858Z,25.71
2023-04-19T08:54:15.218Z,25.67
2023-04-19T08:55:15.198Z,25.92
2023-04-19T08:56:27.729Z,25.78
2023-04-19T08:57:15.193Z,25.58
2023-04-19T08:58:28.537Z,25.86
2023-04-19T08:59:18.366Z,25.52
2023-04-19T09:00:15.143Z,25.30
2023-04-19T09:01:30.361Z,25.02
2023-04-19T09:02:15.243Z,24.53
2023-04-19T09:03:15.327Z,24.07
2023-04-19T09:04:33.898Z,23.51
2023-04-19T09:05:15.369Z,23.13
2023-04-19T09:06:15.320Z,22.78
2023-04-19T09:07:15.083Z,22.62
2023-04-19T09:08:15.080Z,22.33
2023-04-19T09:09:28.891Z,22.64
2023-04-19T09:10:15.040Z,23.13
2023-04-19T09:11:15.023Z,23.87
2023-04-19T09:12:15.011Z,24.63
2023-04-19T09:13:15.005Z,25.02
2023-04-19T09:14:14.986Z,25.48
2023-04-19T09:15:14.978Z,25.68
2023-04-19T09:16:15.064Z,24.48
2023-04-19T09:17:14.954Z,24.33
2023-04-19T09:18:14.953Z,24.63
2023-04-19T09:20:14.942Z,25.35
2023-04-19T09:21:14.923Z,25.96
2023-04-19T09:22:15.094Z,26.62
2023-04-19T09:23:14.894Z,26.86
2023-04-19T09:24:14.882Z,26.56
2023-04-19T09:25:39.169Z,26.10
2023-04-19T09:26:21.984Z,26.18
2023-04-19T09:27:14.854Z,26.18
2023-04-19T09:28:14.838Z,25.82
2023-04-19T09:29:15.251Z,25.64
2023-04-19T09:30:24.212Z,25.63
2023-04-19T09:31:33.148Z,25.35
2023-04-19T09:32:14.800Z,24.92
2023-04-19T09:33:14.932Z,24.31
2023-04-19T09:34:14.778Z,23.62
2023-04-19T09:35:14.774Z,22.85
2023-04-19T09:36:14.799Z,22.40
2023-04-19T09:37:29.491Z,22.24
2023-04-19T09:38:14.752Z,22.24
2023-04-19T09:39:15.559Z,21.84
2023-04-19T09:40:14.712Z,21.58
2023-04-19T09:41:14.695Z,22.08
2023-04-19T09:42:18.101Z,22.74
2023-04-19T09:43:45.258Z,23.58
2023-04-19T09:45:29.180Z,24.80
2023-04-19T09:46:14.688Z,25.17
2023-04-19T09:47:14.634Z,25.51
2023-04-19T09:48:14.611Z,25.71
2023-04-19T09:49:22.994Z,26.11
2023-04-19T09:50:23.984Z,26.56
2023-04-19T09:51:15.069Z,26.86
2023-04-19T09:52:14.641Z,26.97
2023-04-19T09:53:14.562Z,26.77
2023-04-19T09:54:14.654Z,26.26
2023-04-19T09:55:26.168Z,25.36
2023-04-19T09:56:14.534Z,24.53
2023-04-19T09:57:14.522Z,24.10
2023-04-19T09:58:14.514Z,23.48
2023-04-19T09:59:20.812Z,23.29
2023-04-19T10:00:14.487Z,23.54
2023-04-19T10:01:16.156Z,24.03
2023-04-19T10:02:14.533Z,24.66
2023-04-19T10:03:14.512Z,25.15
2023-04-19T10:04:24.057Z,25.52
2023-04-19T10:05:20.503Z,25.83
2023-04-19T10:06:31.787Z,26.14
2023-04-19T10:08:14.422Z,26.45
2023-04-19T10:09:14.808Z,26.75
2023-04-19T10:10:20.392Z,26.98
2023-04-19T10:11:14.362Z,27.23
2023-04-19T10:12:38.568Z,27.47
2023-04-19T10:13:19.951Z,27.40
2023-04-19T10:14:14.333Z,27.26
2023-04-19T10:15:14.329Z,27.31
2023-04-19T10:16:19.729Z,27.27
2023-04-19T10:17:14.454Z,27.30
2023-04-19T10:18:14.296Z,27.34
2023-04-19T10:19:14.427Z,27.54
2023-04-19T10:20:14.275Z,27.72
2023-04-19T10:21:14.261Z,27.86
2023-04-19T10:22:14.275Z,27.96
2023-04-19T10:23:14.238Z,27.99
2023-04-19T10:24:14.228Z,28.04
2023-04-19T10:25:14.221Z,28.16
2023-04-19T10:26:14.223Z,28.31
2023-04-19T10:27:14.198Z,28.53
2023-04-19T10:28:14.190Z,28.47
2023-04-19T10:29:14.455Z,27.52
2023-04-19T10:30:14.160Z,26.70
2023-04-19T10:31:14.220Z,26.19
2023-04-19T10:32:14.191Z,25.75
2023-04-19T10:33:14.134Z,25.27
2023-04-19T10:34:14.124Z,25.30
2023-04-19T10:35:14.676Z,25.56
2023-04-19T10:36:14.099Z,26.08
2023-04-19T10:37:14.104Z,26.38
2023-04-19T10:38:14.086Z,26.72
2023-04-19T10:39:14.259Z,26.93
2023-04-19T10:40:14.087Z,27.17
2023-04-19T10:41:16.902Z,27.50
2023-04-19T10:42:14.270Z,27.69
2023-04-19T10:43:14.020Z,27.96
2023-04-19T10:44:14.010Z,28.04
2023-04-19T10:45:14.006Z,27.62
2023-04-19T10:46:14.023Z,26.78
2023-04-19T10:47:14.735Z,26.60
2023-04-19T10:48:13.967Z,26.44
2023-04-19T10:49:14.081Z,25.98
2023-04-19T10:50:14.050Z,26.33
2023-04-19T10:51:13.931Z,26.59
2023-04-19T10:52:13.920Z,26.67
2023-04-19T10:53:14.309Z,27.08
2023-04-19T10:54:13.905Z,27.35
2023-04-19T10:55:13.887Z,27.34
2023-04-19T10:56:13.878Z,27.42
2023-04-19T10:57:13.880Z,27.37
2023-04-19T10:58:13.902Z,27.47
2023-04-19T10:59:13.925Z,27.42
2023-04-19T11:00:13.831Z,27.12
2023-04-19T11:01:13.855Z,27.01
2023-04-19T11:02:13.901Z,27.05
2023-04-19T11:03:13.937Z,26.97
2023-04-19T11:04:13.935Z,26.62
2023-04-19T11:05:13.787Z,26.47
2023-04-19T11:06:13.778Z,26.38
2023-04-19T11:07:13.764Z,26.47
2023-04-19T11:08:13.748Z,26.56
2023-04-19T11:09:13.914Z,26.48
2023-04-19T11:10:13.795Z,26.38
2023-04-19T11:11:13.718Z,26.20
2023-04-19T11:12:13.755Z,26.05
2023-04-19T11:13:13.687Z,26.01
2023-04-19T11:14:13.759Z,26.05
2023-04-19T11:15:13.665Z,25.96
2023-04-19T11:16:13.687Z,25.93
2023-04-19T11:17:13.671Z,26.08
2023-04-19T11:18:13.698Z,26.12
2023-04-19T11:19:13.824Z,26.01
2023-04-19T11:20:13.619Z,25.92
2023-04-19T11:21:13.599Z,25.92
2023-04-19T11:22:13.604Z,26.01
2023-04-19T11:23:13.587Z,26.29
2023-04-19T11:24:13.569Z,26.29
2023-04-19T11:25:13.565Z,26.10
2023-04-19T11:26:13.581Z,25.98
2023-04-19T11:27:13.551Z,25.71
2023-04-19T11:28:13.530Z,25.59
2023-04-19T11:29:13.773Z,25.52
2023-04-19T11:30:13.566Z,25.35
2023-04-19T11:31:13.554Z,24.93
2023-04-19T11:32:13.494Z,24.71
2023-04-19T11:33:13.479Z,24.52
2023-04-19T11:34:13.685Z,24.29
2023-04-19T11:35:13.459Z,24.06
2023-04-19T11:36:13.455Z,23.87
2023-04-19T11:37:13.444Z,23.70
2023-04-19T11:38:13.420Z,23.70
2023-04-19T11:39:13.416Z,23.73
2023-04-19T11:40:13.408Z,23.93
2023-04-19T11:41:13.387Z,24.44
2023-04-19T11:42:13.372Z,24.99
2023-04-19T11:43:13.385Z,25.29
2023-04-19T11:44:13.445Z,25.42
2023-04-19T11:45:26.099Z,25.14
2023-04-19T11:46:13.458Z,24.68
2023-04-19T11:47:13.337Z,24.11
2023-04-19T11:48:13.378Z,23.55
2023-04-19T11:49:13.322Z,22.92
2023-04-19T11:50:13.285Z,22.36
2023-04-19T11:51:13.277Z,22.05
2023-04-19T11:52:13.268Z,21.85
2023-04-19T11:53:13.269Z,21.84
2023-04-19T11:54:13.270Z,21.67
2023-04-19T11:55:13.262Z,21.63
2023-04-19T11:56:13.221Z,21.44
2023-04-19T11:57:13.240Z,21.25
2023-04-19T11:58:13.197Z,21.13
2023-04-19T11:59:13.184Z,20.91
2023-04-19T12:00:13.178Z,20.76
2023-04-19T12:01:13.185Z,20.69
2023-04-19T12:02:13.353Z,20.55
2023-04-19T12:03:13.280Z,20.33
2023-04-19T12:04:13.274Z,20.34
2023-04-19T12:05:13.320Z,20.29
2023-04-19T12:06:13.115Z,20.26
2023-04-19T12:07:13.099Z,20.15
2023-04-19T12:08:13.088Z,20.11
2023-04-19T12:09:13.076Z,19.90
2023-04-19T12:10:13.093Z,19.71
2023-04-19T12:11:13.069Z,19.93
2023-04-19T12:12:13.049Z,20.07
2023-04-19T12:13:13.067Z,20.17
2023-04-19T12:14:13.028Z,20.37
2023-04-19T12:15:13.022Z,20.62
2023-04-19T12:16:13.034Z,20.88
2023-04-19T12:17:12.995Z,21.02
2023-04-19T12:18:13.078Z,20.67
2023-04-19T12:19:13.014Z,20.33
2023-04-19T12:20:12.964Z,19.94
2023-04-19T12:21:12.958Z,19.92
2023-04-19T12:22:12.943Z,19.97
2023-04-19T12:23:12.927Z,19.69
2023-04-19T12:24:12.921Z,19.59
2023-04-19T12:25:12.913Z,19.70
2023-04-19T12:26:12.898Z,19.82
2023-04-19T12:27:12.881Z,19.73
2023-04-19T12:28:12.873Z,19.69
2023-04-19T12:29:12.935Z,19.77
2023-04-19T12:30:12.910Z,19.93
2023-04-19T12:31:12.842Z,20.04
2023-04-19T12:32:12.859Z,20.12
2023-04-19T12:33:12.866Z,20.26
2023-04-19T12:34:12.854Z,20.18
2023-04-19T12:35:12.793Z,19.89
2023-04-19T12:36:12.779Z,19.61
2023-04-19T12:37:12.769Z,19.63
2023-04-19T12:38:12.761Z,19.82
2023-04-19T12:39:12.754Z,19.99
2023-04-19T12:40:12.748Z,19.93
2023-04-19T12:41:12.735Z,20.05
2023-04-19T12:42:12.712Z,20.07
2023-04-19T12:43:12.714Z,19.97
2023-04-19T12:44:12.697Z,19.87
2023-04-19T12:45:12.684Z,19.87
2023-04-19T12:46:12.695Z,19.92
2023-04-19T12:47:12.661Z,19.89
2023-04-19T12:48:12.643Z,20.04
2023-04-19T12:49:12.636Z,20.22
2023-04-19T12:50:12.726Z,20.42
2023-04-19T12:51:12.613Z,20.55
2023-04-19T12:52:12.605Z,20.60
2023-04-19T12:53:12.598Z,20.47
2023-04-19T12:54:12.584Z,20.51
2023-04-19T12:55:12.575Z,20.55
2023-04-19T12:56:12.563Z,20.47
2023-04-19T12:57:12.550Z,19.96
2023-04-19T12:58:12.536Z,20.05
2023-04-19T12:59:12.518Z,20.12
2023-04-19T13:00:12.529Z,20.27
2023-04-19T13:01:12.569Z,20.39
2023-04-19T13:02:12.586Z,20.49
2023-04-19T13:03:12.658Z,20.48
2023-04-19T13:04:12.594Z,20.34
2023-04-19T13:05:12.466Z,20.29
2023-04-19T13:06:12.473Z,20.12
2023-04-19T13:07:12.442Z,20.05
2023-04-19T13:08:12.426Z,20.02